FNA590 BIRK-BIVM
Flight info
| Callsign | FNA590 |
|---|---|
| Flight time | 0h 22m |
| Altitude | 9000 |
| Route | VM |
| Aircraft | BE20/L-SBGRY/S |
Departure
| Time | 2026-05-07 19:16 |
|---|---|
| Airport | Reykjavík Domestic Airport (BIRK) |
Arrival
| Time | 2026-05-07 19:38 |
|---|---|
| Airport | Vestmannaeyjar Airport (BIVM) |
| Time | Latitude | Longitude | Altitude | Speed | Heading |
|---|---|---|---|---|---|
| 2026-05-07 19:02 | 64.13158 | -21.94565 | 37 ft | 0 kts | 84° |
| 2026-05-07 19:08 | 64.13157 | -21.94507 | 37 ft | 9 kts | 102° |
| 2026-05-07 19:08 | 64.13138 | -21.94398 | 37 ft | 9 kts | 133° |
| 2026-05-07 19:08 | 64.13135 | -21.94279 | 37 ft | 11 kts | 83° |
| 2026-05-07 19:08 | 64.13146 | -21.94074 | 37 ft | 7 kts | 84° |
| 2026-05-07 19:09 | 64.13153 | -21.93922 | 42 ft | 9 kts | 82° |
| 2026-05-07 19:09 | 64.13133 | -21.93766 | 44 ft | 14 kts | 122° |
| 2026-05-07 19:09 | 64.13067 | -21.93563 | 43 ft | 15 kts | 147° |
| 2026-05-07 19:09 | 64.12986 | -21.93573 | 43 ft | 15 kts | 183° |
| 2026-05-07 19:10 | 64.12941 | -21.93579 | 43 ft | 0 kts | 182° |
| 2026-05-07 19:10 | 64.12915 | -21.93544 | 43 ft | 9 kts | 136° |
| 2026-05-07 19:10 | 64.12857 | -21.93499 | 40 ft | 13 kts | 177° |
| 2026-05-07 19:10 | 64.12748 | -21.93482 | 38 ft | 13 kts | 174° |
| 2026-05-07 19:11 | 64.12622 | -21.93455 | 34 ft | 17 kts | 175° |
| 2026-05-07 19:11 | 64.12486 | -21.93427 | 29 ft | 21 kts | 176° |
| 2026-05-07 19:11 | 64.12394 | -21.93398 | 29 ft | 6 kts | 166° |
| 2026-05-07 19:11 | 64.12390 | -21.93397 | 29 ft | 0 kts | 175° |
| 2026-05-07 19:13 | 64.12381 | -21.93400 | 28 ft | 6 kts | 188° |
| 2026-05-07 19:14 | 64.12314 | -21.93400 | 26 ft | 12 kts | 176° |
| 2026-05-07 19:14 | 64.12205 | -21.93406 | 23 ft | 13 kts | 199° |
| 2026-05-07 19:14 | 64.12190 | -21.93421 | 23 ft | 7 kts | 206° |
| 2026-05-07 19:14 | 64.12123 | -21.93529 | 20 ft | 9 kts | 244° |
| 2026-05-07 19:15 | 64.12158 | -21.93617 | 21 ft | 13 kts | 354° |
| 2026-05-07 19:15 | 64.12339 | -21.93652 | 25 ft | 52 kts | 356° |
| 2026-05-07 19:15 | 64.12887 | -21.93765 | 110 ft | 98 kts | 355° |
| 2026-05-07 19:15 | 64.13633 | -21.93897 | 508 ft | 113 kts | 358° |
| 2026-05-07 19:16 | 64.14479 | -21.94000 | 896 ft | 137 kts | 359° |
| 2026-05-07 19:16 | 64.15467 | -21.94564 | 1303 ft | 160 kts | 333° |
| 2026-05-07 19:16 | 64.16230 | -21.96733 | 1480 ft | 194 kts | 294° |
| 2026-05-07 19:16 | 64.16214 | -21.99937 | 1791 ft | 216 kts | 253° |
| 2026-05-07 19:17 | 64.15270 | -22.02734 | 1969 ft | 231 kts | 216° |
| 2026-05-07 19:17 | 64.13763 | -22.03954 | 2172 ft | 233 kts | 189° |
| 2026-05-07 19:17 | 64.12176 | -22.04550 | 2530 ft | 228 kts | 188° |
| 2026-05-07 19:17 | 64.10616 | -22.05068 | 2972 ft | 224 kts | 186° |
| 2026-05-07 19:18 | 64.09072 | -22.05401 | 3430 ft | 221 kts | 185° |
| 2026-05-07 19:18 | 64.07543 | -22.05917 | 3853 ft | 223 kts | 188° |
| 2026-05-07 19:18 | 64.06013 | -22.06402 | 4272 ft | 220 kts | 178° |
| 2026-05-07 19:18 | 64.04593 | -22.05366 | 4707 ft | 214 kts | 138° |
| 2026-05-07 19:19 | 64.03718 | -22.02763 | 5156 ft | 203 kts | 111° |
| 2026-05-07 19:19 | 64.02873 | -22.00131 | 5578 ft | 209 kts | 129° |
| 2026-05-07 19:19 | 64.01884 | -21.97663 | 6017 ft | 213 kts | 126° |
| 2026-05-07 19:19 | 64.00927 | -21.95061 | 6460 ft | 215 kts | 123° |
| 2026-05-07 19:20 | 63.99991 | -21.92381 | 6878 ft | 217 kts | 123° |
| 2026-05-07 19:20 | 63.99042 | -21.89675 | 7294 ft | 220 kts | 123° |
| 2026-05-07 19:20 | 63.98089 | -21.86989 | 7711 ft | 222 kts | 125° |
| 2026-05-07 19:20 | 63.97116 | -21.84254 | 8137 ft | 223 kts | 124° |
| 2026-05-07 19:21 | 63.96138 | -21.81499 | 8555 ft | 224 kts | 126° |
| 2026-05-07 19:21 | 63.95394 | -21.78483 | 8965 ft | 218 kts | 98° |
| 2026-05-07 19:21 | 63.95483 | -21.75030 | 8999 ft | 224 kts | 66° |
| 2026-05-07 19:21 | 63.96138 | -21.71759 | 9002 ft | 231 kts | 59° |
| 2026-05-07 19:22 | 63.96889 | -21.68480 | 9001 ft | 236 kts | 58° |
| 2026-05-07 19:22 | 63.97589 | -21.65088 | 8997 ft | 240 kts | 72° |
| 2026-05-07 19:22 | 63.97569 | -21.61252 | 9008 ft | 251 kts | 103° |
| 2026-05-07 19:22 | 63.96661 | -21.57838 | 9009 ft | 259 kts | 134° |
| 2026-05-07 19:23 | 63.95158 | -21.55581 | 9010 ft | 260 kts | 150° |
| 2026-05-07 19:23 | 63.93578 | -21.53567 | 9010 ft | 260 kts | 145° |
| 2026-05-07 19:23 | 63.92129 | -21.51108 | 9009 ft | 259 kts | 137° |
| 2026-05-07 19:23 | 63.90761 | -21.48442 | 9009 ft | 259 kts | 137° |
| 2026-05-07 19:24 | 63.89372 | -21.45847 | 9000 ft | 258 kts | 139° |
| 2026-05-07 19:24 | 63.87962 | -21.43328 | 9000 ft | 258 kts | 139° |
| 2026-05-07 19:24 | 63.86556 | -21.40810 | 9000 ft | 258 kts | 139° |
| 2026-05-07 19:24 | 63.85157 | -21.38276 | 9000 ft | 257 kts | 139° |
| 2026-05-07 19:25 | 63.83756 | -21.35741 | 8999 ft | 257 kts | 139° |
| 2026-05-07 19:25 | 63.82356 | -21.33218 | 8998 ft | 257 kts | 139° |
| 2026-05-07 19:25 | 63.80955 | -21.30699 | 8998 ft | 257 kts | 139° |
| 2026-05-07 19:25 | 63.79556 | -21.28183 | 8999 ft | 257 kts | 139° |
| 2026-05-07 19:26 | 63.78155 | -21.25668 | 8991 ft | 257 kts | 139° |
| 2026-05-07 19:26 | 63.76773 | -21.23189 | 8990 ft | 257 kts | 139° |
| 2026-05-07 19:26 | 63.75372 | -21.20680 | 8990 ft | 257 kts | 139° |
| 2026-05-07 19:26 | 63.73968 | -21.18171 | 8998 ft | 257 kts | 139° |
| 2026-05-07 19:27 | 63.72561 | -21.15656 | 8989 ft | 259 kts | 138° |
| 2026-05-07 19:27 | 63.71146 | -21.13133 | 8988 ft | 259 kts | 138° |
| 2026-05-07 19:27 | 63.69732 | -21.10616 | 8990 ft | 259 kts | 139° |
| 2026-05-07 19:27 | 63.68322 | -21.08107 | 8988 ft | 257 kts | 139° |
| 2026-05-07 19:28 | 63.66919 | -21.05613 | 8990 ft | 257 kts | 139° |
| 2026-05-07 19:28 | 63.65515 | -21.03123 | 8990 ft | 257 kts | 139° |
| 2026-05-07 19:28 | 63.64111 | -21.00635 | 8990 ft | 257 kts | 139° |
| 2026-05-07 19:28 | 63.62704 | -20.98145 | 8990 ft | 257 kts | 139° |
| 2026-05-07 19:29 | 63.61299 | -20.95661 | 8988 ft | 257 kts | 139° |
| 2026-05-07 19:29 | 63.59892 | -20.93176 | 8986 ft | 258 kts | 139° |
| 2026-05-07 19:29 | 63.58475 | -20.90680 | 8983 ft | 259 kts | 139° |
| 2026-05-07 19:29 | 63.57054 | -20.88178 | 8959 ft | 261 kts | 139° |
| 2026-05-07 19:30 | 63.55601 | -20.85618 | 8602 ft | 270 kts | 139° |
| 2026-05-07 19:30 | 63.54111 | -20.83004 | 8234 ft | 273 kts | 139° |
| 2026-05-07 19:30 | 63.52610 | -20.80377 | 7867 ft | 274 kts | 139° |
| 2026-05-07 19:30 | 63.51132 | -20.77790 | 7507 ft | 273 kts | 139° |
| 2026-05-07 19:31 | 63.49639 | -20.75179 | 7148 ft | 272 kts | 139° |
| 2026-05-07 19:31 | 63.48149 | -20.72576 | 6790 ft | 271 kts | 139° |
| 2026-05-07 19:31 | 63.46668 | -20.69994 | 6422 ft | 269 kts | 140° |
| 2026-05-07 19:31 | 63.45200 | -20.67438 | 6042 ft | 266 kts | 140° |
| 2026-05-07 19:32 | 63.43744 | -20.64904 | 5665 ft | 264 kts | 140° |
| 2026-05-07 19:32 | 63.42300 | -20.62396 | 5241 ft | 262 kts | 140° |
| 2026-05-07 19:32 | 63.40865 | -20.59907 | 4865 ft | 261 kts | 140° |
| 2026-05-07 19:32 | 63.39438 | -20.57434 | 4483 ft | 259 kts | 140° |
| 2026-05-07 19:33 | 63.38017 | -20.54976 | 4102 ft | 258 kts | 140° |
| 2026-05-07 19:33 | 63.36602 | -20.52530 | 3730 ft | 257 kts | 140° |
| 2026-05-07 19:33 | 63.35191 | -20.50096 | 3358 ft | 256 kts | 140° |
| 2026-05-07 19:33 | 63.33786 | -20.47674 | 2985 ft | 255 kts | 140° |
| 2026-05-07 19:34 | 63.32493 | -20.45055 | 2603 ft | 249 kts | 123° |
| 2026-05-07 19:34 | 63.31884 | -20.41551 | 2232 ft | 243 kts | 92° |
| 2026-05-07 19:34 | 63.32173 | -20.37964 | 1920 ft | 233 kts | 60° |
| 2026-05-07 19:34 | 63.33136 | -20.35289 | 1913 ft | 211 kts | 34° |
| 2026-05-07 19:35 | 63.34354 | -20.33955 | 1897 ft | 184 kts | 16° |
| 2026-05-07 19:35 | 63.35521 | -20.33121 | 1893 ft | 167 kts | 16° |
| 2026-05-07 19:35 | 63.36517 | -20.32388 | 1876 ft | 130 kts | 15° |
| 2026-05-07 19:35 | 63.37316 | -20.31818 | 1603 ft | 115 kts | 14° |
| 2026-05-07 19:36 | 63.38057 | -20.31299 | 1227 ft | 114 kts | 14° |
| 2026-05-07 19:36 | 63.38794 | -20.30752 | 971 ft | 111 kts | 17° |
| 2026-05-07 19:36 | 63.39526 | -20.30177 | 862 ft | 110 kts | 20° |
| 2026-05-07 19:36 | 63.40217 | -20.29644 | 679 ft | 102 kts | 19° |
| 2026-05-07 19:37 | 63.40868 | -20.29164 | 592 ft | 93 kts | 22° |
| 2026-05-07 19:37 | 63.41468 | -20.28716 | 433 ft | 90 kts | 23° |
| 2026-05-07 19:37 | 63.42037 | -20.28276 | 326 ft | 84 kts | 24° |
| 2026-05-07 19:37 | 63.42529 | -20.27909 | 315 ft | 61 kts | 25° |
| 2026-05-07 19:38 | 63.42641 | -20.27815 | 318 ft | 9 kts | 20° |
| 2026-05-07 19:38 | 63.42728 | -20.27744 | 314 ft | 15 kts | 19° |
| 2026-05-07 19:38 | 63.42807 | -20.27657 | 312 ft | 8 kts | 355° |
| 2026-05-07 19:38 | 63.42779 | -20.27728 | 312 ft | 15 kts | 198° |
| 2026-05-07 19:39 | 63.42679 | -20.27793 | 317 ft | 9 kts | 195° |
| 2026-05-07 19:39 | 63.42622 | -20.27835 | 318 ft | 16 kts | 198° |
| 2026-05-07 19:39 | 63.42510 | -20.27903 | 314 ft | 15 kts | 178° |
| 2026-05-07 19:39 | 63.42465 | -20.27738 | 319 ft | 15 kts | 112° |
| 2026-05-07 19:40 | 63.42430 | -20.27499 | 328 ft | 16 kts | 104° |
| 2026-05-07 19:40 | 63.42406 | -20.27334 | 331 ft | 8 kts | 110° |
| 2026-05-07 19:40 | 63.42385 | -20.27196 | 331 ft | 10 kts | 108° |
| 2026-05-07 19:40 | 63.42427 | -20.27088 | 334 ft | 13 kts | 15° |
| 2026-05-07 19:41 | 63.42490 | -20.27015 | 334 ft | 10 kts | 71° |
| 2026-05-07 19:41 | 63.42491 | -20.26938 | 334 ft | 0 kts | 113° |
| 2026-05-07 19:41 | 63.42485 | -20.26912 | 331 ft | 5 kts | 118° |
| 2026-05-07 19:41 | 63.42454 | -20.26886 | 333 ft | 10 kts | 198° |
| 2026-05-07 19:42 | 63.42445 | -20.26892 | 333 ft | 0 kts | 198° |